Time;durP1;ratioP1;P1;durP2;ratioP2;P2;SDS_P1;SDS_P2;PMS_P1;PMS_P2;Temp;Humidity;BMP_temperature;BMP_pressure;BME280_temperature;BME280_humidity;BME280_pressure;Samples;Min_cycle;Max_cycle;Signal;HPM_P1;HPM_P2
2023/09/10 00:01:28;;;;;;;20.20;18.13;;;21.00;99.90;;;;;;5049739;28;20197;-56
2023/09/10 00:03:56;;;;;;;17.93;16.63;;;21.00;99.90;;;;;;5021558;28;20215;-56
2023/09/10 00:06:23;;;;;;;18.53;16.97;;;21.00;99.90;;;;;;5035251;28;20269;-56
2023/09/10 00:08:49;;;;;;;20.97;19.17;;;21.00;99.90;;;;;;5048905;28;20198;-56
2023/09/10 00:11:16;;;;;;;19.13;17.53;;;21.00;99.90;;;;;;5048618;28;20206;-56
2023/09/10 00:13:43;;;;;;;16.50;15.10;;;20.90;99.90;;;;;;5049827;28;20677;-57
2023/09/10 00:16:11;;;;;;;17.37;15.97;;;20.80;99.90;;;;;;5023801;28;20257;-57
2023/09/10 00:18:38;;;;;;;18.33;16.70;;;20.80;99.90;;;;;;5010103;28;20284;-57
2023/09/10 00:21:05;;;;;;;16.80;15.50;;;20.70;99.90;;;;;;5077686;22;20542;-56
2023/09/10 00:23:32;;;;;;;18.03;16.63;;;20.70;99.90;;;;;;5036835;28;20245;-56
2023/09/10 00:25:59;;;;;;;16.83;15.43;;;20.70;99.90;;;;;;5045916;28;20594;-56
2023/09/10 00:28:26;;;;;;;17.00;15.60;;;20.70;99.90;;;;;;5049843;28;20213;-56
2023/09/10 00:30:53;;;;;;;18.87;16.67;;;20.70;99.90;;;;;;5039633;28;20719;-56
2023/09/10 00:33:22;;;;;;;16.27;15.13;;;20.60;99.90;;;;;;5041358;28;20257;-57
2023/09/10 00:35:49;;;;;;;18.60;17.00;;;20.60;99.90;;;;;;5035978;28;20202;-56
2023/09/10 00:38:16;;;;;;;17.10;15.70;;;20.60;99.90;;;;;;5033735;28;20202;-56
2023/09/10 00:40:43;;;;;;;17.53;16.13;;;20.60;99.90;;;;;;5037959;28;20222;-56
2023/09/10 00:43:09;;;;;;;16.93;15.67;;;20.60;99.90;;;;;;5053292;28;20193;-56
2023/09/10 00:45:37;;;;;;;17.77;16.27;;;20.50;99.90;;;;;;5052995;28;20222;-56
2023/09/10 00:48:04;;;;;;;16.40;15.10;;;20.50;99.90;;;;;;5053482;28;20699;-56
2023/09/10 00:50:33;;;;;;;17.10;15.80;;;20.50;99.90;;;;;;5043657;28;20222;-57
2023/09/10 00:53:01;;;;;;;16.37;14.77;;;20.50;99.90;;;;;;5034652;28;20206;-56
2023/09/10 00:55:32;;;;;;;18.67;17.27;;;20.40;99.90;;;;;;5044160;28;20280;-56
2023/09/10 00:57:59;;;;;;;19.00;17.03;;;20.40;99.90;;;;;;5042740;28;20285;-56
2023/09/10 01:00:28;;;;;;;19.80;18.10;;;20.40;99.90;;;;;;5041963;28;20218;-56
2023/09/10 01:02:56;;;;;;;18.07;16.57;;;20.50;99.90;;;;;;5039963;28;20263;-56
2023/09/10 01:05:23;;;;;;;16.27;15.07;;;20.50;99.90;;;;;;5044601;28;20209;-56
2023/09/10 01:07:51;;;;;;;18.37;16.97;;;20.40;99.90;;;;;;5051319;28;20205;-56
2023/09/10 01:10:18;;;;;;;16.80;15.30;;;20.40;99.90;;;;;;5044302;28;20848;-56
2023/09/10 01:12:55;;;;;;;16.13;14.80;;;20.40;99.90;;;;;;5053810;28;20260;-56
2023/09/10 01:15:29;;;;;;;16.90;15.43;;;20.40;99.90;;;;;;5039167;28;20658;-56
2023/09/10 01:18:06;;;;;;;16.47;15.17;;;20.40;99.90;;;;;;5028779;28;20250;-56
2023/09/10 01:21:05;;;;;;;17.97;16.67;;;20.40;99.90;;;;;;5038471;28;20361;-56
2023/09/10 01:23:50;;;;;;;16.97;15.60;;;20.30;99.90;;;;;;5033487;28;20539;-56
2023/09/10 01:26:18;;;;;;;16.13;15.00;;;20.40;99.90;;;;;;5032675;28;20604;-56
2023/09/10 01:28:45;;;;;;;17.13;15.73;;;20.40;99.90;;;;;;5038496;28;20622;-56
2023/09/10 01:31:12;;;;;;;16.00;14.53;;;20.40;99.90;;;;;;5044618;28;20378;-56
2023/09/10 01:33:42;;;;;;;16.33;15.13;;;20.30;99.90;;;;;;5035874;28;20210;-56
2023/09/10 01:36:12;;;;;;;15.83;14.33;;;20.40;99.90;;;;;;5040934;28;20577;-56
2023/09/10 01:38:44;;;;;;;16.20;15.00;;;20.40;99.90;;;;;;5044522;28;20198;-56
2023/09/10 01:41:14;;;;;;;14.47;13.47;;;20.30;99.90;;;;;;5053154;28;20283;-56
2023/09/10 01:43:44;;;;;;;16.93;15.63;;;20.30;99.90;;;;;;5053172;28;20255;-56
2023/09/10 01:46:13;;;;;;;15.53;14.43;;;20.30;99.90;;;;;;5048218;28;20214;-56
2023/09/10 01:48:41;;;;;;;16.10;14.50;;;20.30;99.90;;;;;;5044476;28;20190;-56
2023/09/10 01:51:08;;;;;;;17.03;15.73;;;20.30;99.90;;;;;;5045849;28;20275;-57
2023/09/10 01:53:34;;;;;;;15.50;14.40;;;20.20;99.90;;;;;;5046053;28;20343;-56
2023/09/10 01:56:02;;;;;;;14.20;13.20;;;20.20;99.90;;;;;;5052371;28;20239;-56
2023/09/10 01:58:29;;;;;;;15.97;14.67;;;20.10;99.90;;;;;;5046731;28;20222;-56
2023/09/10 02:00:57;;;;;;;17.13;15.60;;;20.10;99.90;;;;;;5040539;28;20283;-56
2023/09/10 02:03:24;;;;;;;17.77;16.13;;;20.10;99.90;;;;;;5032723;28;20268;-56
2023/09/10 02:05:51;;;;;;;16.80;15.50;;;20.10;99.90;;;;;;5032589;28;20219;-56
2023/09/10 02:08:18;;;;;;;19.80;18.17;;;20.10;99.90;;;;;;5033872;28;20268;-56
2023/09/10 02:10:45;;;;;;;18.73;17.27;;;20.10;99.90;;;;;;5040991;28;20229;-56
2023/09/10 02:13:11;;;;;;;18.97;17.43;;;20.10;99.90;;;;;;5042180;28;20194;-56
2023/09/10 02:15:39;;;;;;;16.93;15.47;;;20.20;99.90;;;;;;5051962;28;20283;-56
2023/09/10 02:18:08;;;;;;;17.23;15.73;;;20.20;99.90;;;;;;5052254;28;20202;-57
2023/09/10 02:20:36;;;;;;;18.33;16.93;;;20.10;99.90;;;;;;5052254;28;20237;-56
2023/09/10 02:23:03;;;;;;;17.67;16.10;;;20.10;99.90;;;;;;5049868;28;20292;-56
2023/09/10 02:25:30;;;;;;;18.57;16.97;;;20.10;99.90;;;;;;5035020;28;20864;-55
2023/09/10 02:27:57;;;;;;;20.07;18.33;;;20.00;99.90;;;;;;5039358;28;20731;-56
2023/09/10 02:30:24;;;;;;;18.43;17.03;;;20.00;99.90;;;;;;5034524;28;20218;-56
2023/09/10 02:32:51;;;;;;;19.23;17.77;;;20.00;99.90;;;;;;5040213;28;20618;-56
2023/09/10 02:35:20;;;;;;;19.37;17.67;;;19.90;99.90;;;;;;5021502;28;20261;-56
2023/09/10 02:37:47;;;;;;;16.70;15.13;;;19.80;99.90;;;;;;5021591;28;20639;-56
2023/09/10 02:40:14;;;;;;;18.37;16.67;;;19.70;99.90;;;;;;5031380;28;20276;-56
2023/09/10 02:42:41;;;;;;;18.60;17.23;;;19.70;99.90;;;;;;5030188;28;20199;-56
2023/09/10 02:45:09;;;;;;;17.00;15.50;;;19.70;99.90;;;;;;5031178;28;20527;-56
2023/09/10 02:47:36;;;;;;;17.73;16.17;;;19.70;99.90;;;;;;5020206;28;20284;-55
2023/09/10 02:50:03;;;;;;;16.77;15.37;;;19.60;99.90;;;;;;5023231;28;20223;-55
2023/09/10 02:52:31;;;;;;;17.67;16.33;;;19.50;99.90;;;;;;5025845;28;20264;-56
2023/09/10 02:54:59;;;;;;;18.13;16.73;;;19.50;99.90;;;;;;5011786;28;20338;-56
2023/09/10 02:57:26;;;;;;;18.10;16.70;;;19.50;99.90;;;;;;5014040;28;20619;-56
2023/09/10 02:59:53;;;;;;;18.57;17.07;;;19.40;99.90;;;;;;5017877;28;20223;-56
2023/09/10 03:02:19;;;;;;;18.60;17.10;;;19.40;99.90;;;;;;5025728;28;20207;-56
2023/09/10 03:04:46;;;;;;;17.40;16.00;;;19.30;99.90;;;;;;5018353;28;20344;-56
2023/09/10 03:07:13;;;;;;;17.33;15.83;;;19.30;99.90;;;;;;5027991;28;20280;-56
2023/09/10 03:09:42;;;;;;;18.00;16.50;;;19.30;99.90;;;;;;5012778;28;20246;-55
2023/09/10 03:12:24;;;;;;;22.17;15.83;;;19.30;99.90;;;;;;5014906;28;20253;-56
2023/09/10 03:14:51;;;;;;;18.27;16.73;;;19.30;99.90;;;;;;5019840;28;20203;-55
2023/09/10 03:17:19;;;;;;;19.10;17.10;;;19.30;99.90;;;;;;5021644;28;20208;-55
2023/09/10 03:19:46;;;;;;;17.57;16.07;;;19.30;99.90;;;;;;5018118;28;20230;-56
2023/09/10 03:22:13;;;;;;;17.37;16.03;;;19.20;99.90;;;;;;5021338;28;20211;-55
2023/09/10 03:24:41;;;;;;;20.43;18.53;;;19.20;99.90;;;;;;5014162;28;20199;-55
2023/09/10 03:27:08;;;;;;;18.93;17.33;;;19.30;99.90;;;;;;5013976;28;20277;-55
2023/09/10 03:29:36;;;;;;;19.13;17.53;;;19.30;99.90;;;;;;5015975;28;20214;-56
2023/09/10 03:32:06;;;;;;;18.30;16.80;;;19.20;99.90;;;;;;5016070;28;20199;-56
2023/09/10 03:34:33;;;;;;;18.37;16.83;;;19.20;99.90;;;;;;5022463;28;20203;-56
2023/09/10 03:37:00;;;;;;;19.20;17.70;;;19.20;99.90;;;;;;5018365;28;20242;-55
2023/09/10 03:39:28;;;;;;;18.83;17.43;;;19.20;99.90;;;;;;5019085;28;20194;-55
2023/09/10 03:41:57;;;;;;;22.67;20.67;;;19.10;99.90;;;;;;5019527;28;20290;-56
2023/09/10 03:44:24;;;;;;;18.17;16.67;;;19.10;99.90;;;;;;5015284;28;20654;-56
2023/09/10 03:46:51;;;;;;;22.40;20.60;;;19.10;99.90;;;;;;5014820;28;20269;-55
2023/09/10 03:49:20;;;;;;;18.63;16.87;;;19.10;99.90;;;;;;5018624;28;20198;-56
2023/09/10 03:51:49;;;;;;;19.63;17.93;;;19.10;99.90;;;;;;5019000;28;20627;-55
2023/09/10 03:54:19;;;;;;;19.73;18.13;;;19.10;99.90;;;;;;5019258;28;20211;-56
2023/09/10 03:56:46;;;;;;;22.60;20.60;;;19.10;99.90;;;;;;5020254;28;20202;-55
2023/09/10 03:59:18;;;;;;;17.70;16.30;;;19.00;99.90;;;;;;5024705;28;20352;-55
2023/09/10 04:01:45;;;;;;;19.40;17.87;;;19.00;99.90;;;;;;5017527;28;20198;-55
2023/09/10 04:04:12;;;;;;;21.13;19.13;;;19.10;99.90;;;;;;5019479;28;20217;-56
2023/09/10 04:06:39;;;;;;;20.30;18.53;;;19.00;99.90;;;;;;5016922;28;20702;-56
2023/09/10 04:09:07;;;;;;;21.13;19.27;;;19.00;99.90;;;;;;5015308;28;20203;-55
2023/09/10 04:11:33;;;;;;;21.10;19.27;;;19.00;99.90;;;;;;5014272;28;20225;-55
2023/09/10 04:14:00;;;;;;;22.23;20.50;;;19.00;99.90;;;;;;5020969;28;20253;-56
2023/09/10 04:16:29;;;;;;;21.23;19.53;;;19.00;99.90;;;;;;5024056;28;20617;-56
2023/09/10 04:18:55;;;;;;;20.37;18.57;;;19.00;99.90;;;;;;5029996;28;20203;-56
2023/09/10 04:21:22;;;;;;;21.83;19.93;;;19.00;99.90;;;;;;5029414;28;20222;-55
2023/09/10 04:23:49;;;;;;;20.80;18.90;;;19.00;99.90;;;;;;5030001;28;20198;-55
2023/09/10 04:26:16;;;;;;;19.93;18.30;;;18.90;99.90;;;;;;5030968;28;20222;-56
2023/09/10 04:28:43;;;;;;;21.07;19.10;;;19.00;99.90;;;;;;5031428;28;20665;-56
2023/09/10 04:31:14;;;;;;;21.70;20.00;;;19.00;99.90;;;;;;5030960;28;20699;-57
2023/09/10 04:33:42;;;;;;;22.57;20.47;;;18.90;99.90;;;;;;5036219;28;20574;-56
2023/09/10 04:36:09;;;;;;;21.37;19.03;;;18.90;99.90;;;;;;5029505;28;20198;-56
2023/09/10 04:38:36;;;;;;;22.27;20.53;;;18.90;99.90;;;;;;5030093;28;20264;-56
2023/09/10 04:41:03;;;;;;;21.73;19.77;;;18.90;99.90;;;;;;5029361;28;20222;-55
2023/09/10 04:43:30;;;;;;;21.83;19.90;;;18.80;99.90;;;;;;5029721;28;20198;-55
2023/09/10 04:45:57;;;;;;;22.03;20.23;;;18.80;99.90;;;;;;5029348;28;20634;-55
2023/09/10 04:48:24;;;;;;;22.80;20.70;;;18.80;99.90;;;;;;5029144;28;20268;-56
2023/09/10 04:50:52;;;;;;;21.33;19.53;;;18.70;99.90;;;;;;5027975;28;20713;-56
2023/09/10 04:53:19;;;;;;;21.97;19.97;;;18.80;99.90;;;;;;5029443;28;20202;-55
2023/09/10 04:55:52;;;;;;;20.10;18.40;;;18.80;99.90;;;;;;5029020;28;20202;-56
2023/09/10 04:58:19;;;;;;;19.33;17.83;;;18.80;99.90;;;;;;5029666;28;20392;-56
2023/09/10 05:00:46;;;;;;;18.90;17.13;;;18.80;99.90;;;;;;5032055;28;20293;-56
2023/09/10 05:03:13;;;;;;;18.93;17.33;;;18.80;99.90;;;;;;5027579;28;20646;-56
2023/09/10 05:05:40;;;;;;;23.00;21.00;;;18.80;99.90;;;;;;5027741;28;20236;-55
2023/09/10 05:08:08;;;;;;;21.17;19.33;;;18.80;99.90;;;;;;5029437;28;20705;-55
2023/09/10 05:10:35;;;;;;;21.83;19.93;;;18.80;99.90;;;;;;5029494;28;20273;-55
2023/09/10 05:13:02;;;;;;;22.60;20.57;;;18.90;99.90;;;;;;5030086;28;20237;-56
2023/09/10 05:15:29;;;;;;;22.33;20.27;;;18.90;99.90;;;;;;5020559;28;20203;-55
2023/09/10 05:17:56;;;;;;;22.10;20.23;;;18.90;99.90;;;;;;5029761;28;20198;-56
2023/09/10 05:20:23;;;;;;;22.60;20.60;;;18.80;99.90;;;;;;5037172;28;20230;-55
2023/09/10 05:22:50;;;;;;;22.37;20.27;;;18.80;99.90;;;;;;5033253;28;20198;-56
2023/09/10 05:25:18;;;;;;;21.73;19.83;;;18.90;99.90;;;;;;5032777;28;20267;-55
2023/09/10 05:27:47;;;;;;;21.77;19.87;;;18.90;99.90;;;;;;5039720;28;20604;-56
2023/09/10 05:30:14;;;;;;;19.90;18.00;;;18.90;99.90;;;;;;5031577;28;20292;-55
2023/09/10 05:32:41;;;;;;;22.53;20.53;;;19.00;99.90;;;;;;5033275;28;20213;-55
2023/09/10 05:35:09;;;;;;;20.33;18.67;;;19.20;99.90;;;;;;5040641;28;20249;-55
2023/09/10 05:37:35;;;;;;;20.37;18.67;;;19.30;99.90;;;;;;5030937;28;20631;-55
2023/09/10 05:40:03;;;;;;;19.77;18.07;;;19.30;99.90;;;;;;5025522;28;20281;-56
2023/09/10 05:42:31;;;;;;;21.73;19.83;;;19.40;99.90;;;;;;5039985;28;20777;-55
2023/09/10 05:44:58;;;;;;;19.03;17.53;;;19.40;99.90;;;;;;5038458;28;20244;-55
2023/09/10 05:47:25;;;;;;;20.73;18.77;;;19.60;99.90;;;;;;5033121;28;20219;-55
2023/09/10 05:49:53;;;;;;;19.37;17.60;;;19.80;99.90;;;;;;5032649;28;20252;-55
2023/09/10 05:52:19;;;;;;;18.27;16.60;;;20.50;99.90;;;;;;5032583;28;20280;-56
2023/09/10 05:54:46;;;;;;;17.60;16.20;;;21.30;99.90;;;;;;5030975;28;20210;-56
2023/09/10 05:57:13;;;;;;;16.73;15.23;;;22.10;99.90;;;;;;5032302;28;20207;-56
2023/09/10 05:59:42;;;;;;;17.47;15.77;;;22.90;99.90;;;;;;5032263;28;20227;-56
2023/09/10 06:02:08;;;;;;;17.13;15.57;;;23.50;99.90;;;;;;5032735;28;20325;-56
2023/09/10 06:04:36;;;;;;;15.50;14.10;;;24.00;99.90;;;;;;5033700;28;20253;-57
2023/09/10 06:07:04;;;;;;;14.60;13.40;;;24.50;99.90;;;;;;5030832;28;20268;-56
2023/09/10 06:09:31;;;;;;;15.27;14.00;;;25.00;99.90;;;;;;5031663;28;20207;-56
2023/09/10 06:11:58;;;;;;;15.07;13.80;;;25.50;99.90;;;;;;5034835;28;20284;-56
2023/09/10 06:14:26;;;;;;;15.97;14.77;;;25.80;99.90;;;;;;5031535;28;20206;-56
2023/09/10 06:16:54;;;;;;;14.13;13.20;;;26.00;99.90;;;;;;5031847;28;20265;-57
2023/09/10 06:19:21;;;;;;;14.00;12.87;;;26.30;99.90;;;;;;5031782;28;20260;-56
2023/09/10 06:21:48;;;;;;;13.40;12.30;;;26.60;99.90;;;;;;5030782;28;20206;-56
2023/09/10 06:24:18;;;;;;;13.60;12.50;;;27.20;99.90;;;;;;5032601;28;20240;-57
2023/09/10 06:26:46;;;;;;;14.93;13.70;;;27.30;99.90;;;;;;5031301;28;20253;-56
2023/09/10 06:29:14;;;;;;;13.65;11.93;;;27.60;99.90;;;;;;5032613;28;20701;-56
2023/09/10 06:31:41;;;;;;;13.90;12.93;;;27.80;99.90;;;;;;5106157;22;20226;-55
2023/09/10 06:34:09;;;;;;;12.35;11.50;;;28.10;99.90;;;;;;5032374;28;20278;-55
2023/09/10 06:36:36;;;;;;;12.02;11.20;;;28.10;99.90;;;;;;5032013;28;20203;-55
2023/09/10 06:39:04;;;;;;;12.70;11.80;;;28.20;99.90;;;;;;5031098;28;20253;-55
2023/09/10 06:41:31;;;;;;;12.75;11.88;;;28.50;99.90;;;;;;5023964;28;20646;-55
2023/09/10 06:43:58;;;;;;;11.70;10.90;;;28.90;99.90;;;;;;5032455;28;20244;-55
2023/09/10 06:46:25;;;;;;;13.02;11.80;;;28.90;99.90;;;;;;5031756;28;20202;-55
2023/09/10 06:48:52;;;;;;;12.57;11.65;;;28.80;99.90;;;;;;5026195;28;20277;-55
2023/09/10 06:51:20;;;;;;;12.45;11.73;;;29.00;99.90;;;;;;5030611;28;20222;-55
2023/09/10 06:53:47;;;;;;;13.25;12.18;;;28.30;99.90;;;;;;5032205;28;20199;-52
2023/09/10 06:56:14;;;;;;;13.25;12.35;;;27.80;99.90;;;;;;5031661;28;20623;-52
2023/09/10 06:58:41;;;;;;;12.60;11.57;;;27.70;99.90;;;;;;5031190;28;20318;-52
2023/09/10 07:01:08;;;;;;;13.93;12.85;;;27.50;99.90;;;;;;5031935;28;20214;-52
2023/09/10 07:03:35;;;;;;;12.15;11.45;;;27.20;99.90;;;;;;5025769;28;20194;-52
2023/09/10 07:06:04;;;;;;;12.00;11.20;;;27.00;99.90;;;;;;5025369;28;20282;-53
2023/09/10 07:08:33;;;;;;;13.63;12.63;;;26.90;99.90;;;;;;5035761;28;20214;-53
2023/09/10 07:11:00;;;;;;;13.60;12.50;;;27.00;99.90;;;;;;5046652;28;20296;-53
2023/09/10 07:13:27;;;;;;;13.45;12.15;;;27.50;99.90;;;;;;5025796;28;20324;-52
2023/09/10 07:15:54;;;;;;;13.88;12.73;;;28.10;99.90;;;;;;5025857;28;20199;-53
2023/09/10 07:18:21;;;;;;;12.80;11.65;;;28.20;99.90;;;;;;5029059;28;20248;-53
2023/09/10 07:20:48;;;;;;;12.63;11.82;;;28.50;99.90;;;;;;5029217;28;20222;-53
2023/09/10 07:23:15;;;;;;;12.52;11.68;;;28.80;99.90;;;;;;5029333;28;20244;-53
2023/09/10 07:25:43;;;;;;;13.32;12.43;;;28.70;99.90;;;;;;5029636;28;20261;-52
2023/09/10 07:28:10;;;;;;;12.50;11.55;;;29.10;99.90;;;;;;5024254;28;20214;-52
2023/09/10 07:30:37;;;;;;;13.45;12.38;;;29.40;99.90;;;;;;5031488;28;20287;-53
2023/09/10 07:33:04;;;;;;;12.35;11.45;;;28.90;99.90;;;;;;5028267;28;20677;-52
2023/09/10 07:35:31;;;;;;;11.00;10.30;;;29.10;99.90;;;;;;5029776;28;20736;-53
2023/09/10 07:37:58;;;;;;;11.60;10.93;;;29.60;99.90;;;;;;5029360;28;20244;-53
2023/09/10 07:40:25;;;;;;;11.75;11.05;;;30.10;99.90;;;;;;5020142;28;20219;-53
2023/09/10 07:42:53;;;;;;;12.70;11.68;;;30.70;99.90;;;;;;5024036;28;20211;-53
2023/09/10 07:45:20;;;;;;;11.52;10.82;;;31.10;99.90;;;;;;5028619;28;20249;-53
2023/09/10 07:47:48;;;;;;;12.65;11.88;;;31.30;99.90;;;;;;5030137;28;20214;-53
2023/09/10 07:50:15;;;;;;;11.02;10.43;;;31.50;99.90;;;;;;5030297;28;20768;-53
2023/09/10 07:52:42;;;;;;;11.68;11.07;;;31.70;99.90;;;;;;5030291;28;20252;-53
2023/09/10 07:55:09;;;;;;;12.85;11.95;;;32.10;99.90;;;;;;5028741;28;20258;-53
2023/09/10 07:57:36;;;;;;;11.85;10.98;;;32.20;99.90;;;;;;5030497;28;20195;-55
2023/09/10 08:00:06;;;;;;;11.43;10.68;;;32.30;99.90;;;;;;5022245;28;20223;-55
2023/09/10 08:02:34;;;;;;;11.20;10.27;;;32.70;99.90;;;;;;5023234;28;20203;-56
2023/09/10 08:05:02;;;;;;;11.23;10.63;;;32.10;99.90;;;;;;5027509;28;20217;-53
2023/09/10 08:07:29;;;;;;;11.38;10.68;;;32.60;99.90;;;;;;5029582;28;20238;-53
2023/09/10 08:09:56;;;;;;;11.18;10.55;;;32.90;99.90;;;;;;5024873;28;20276;-56
2023/09/10 08:12:23;;;;;;;10.48;9.88;;;33.40;99.90;;;;;;5024315;28;20575;-56
2023/09/10 08:14:50;;;;;;;11.82;10.75;;;33.50;99.90;;;;;;5020674;28;20256;-55
2023/09/10 08:17:19;;;;;;;9.82;9.32;;;33.70;99.90;;;;;;5027837;28;20202;-56
2023/09/10 08:19:46;;;;;;;10.90;10.30;;;33.60;99.90;;;;;;5022745;28;20203;-55
2023/09/10 08:22:13;;;;;;;10.68;10.07;;;33.20;99.90;;;;;;5025885;28;20597;-56
2023/09/10 08:24:40;;;;;;;10.55;9.95;;;33.40;99.90;;;;;;5020381;28;20202;-56
2023/09/10 08:27:13;;;;;;;10.95;10.35;;;33.50;99.90;;;;;;5029301;28;20728;-56
2023/09/10 08:29:40;;;;;;;10.45;9.77;;;33.70;99.90;;;;;;5022575;28;20244;-56
2023/09/10 08:32:07;;;;;;;11.18;10.57;;;34.00;99.90;;;;;;5029573;28;20203;-56
2023/09/10 08:34:35;;;;;;;11.45;10.75;;;34.10;99.90;;;;;;5029181;28;20195;-56
2023/09/10 08:37:05;;;;;;;11.48;10.68;;;33.70;99.90;;;;;;5029639;28;20574;-56
2023/09/10 08:39:32;;;;;;;10.88;10.25;;;33.90;99.90;;;;;;5022200;28;20225;-56
2023/09/10 08:42:13;;;;;;;11.82;10.82;;;33.90;99.90;;;;;;5023545;28;20290;-56
2023/09/10 08:44:42;;;;;;;12.07;11.13;;;34.30;99.90;;;;;;5030399;28;20198;-56
2023/09/10 08:47:11;;;;;;;11.55;10.85;;;34.10;99.90;;;;;;5029311;28;20662;-55
2023/09/10 08:49:42;;;;;;;11.40;10.63;;;34.60;99.90;;;;;;5032875;28;20935;-56
2023/09/10 08:52:10;;;;;;;11.35;10.75;;;33.90;99.90;;;;;;5029753;28;20261;-56
2023/09/10 08:54:37;;;;;;;11.48;10.75;;;33.90;99.90;;;;;;5030142;28;20194;-56
2023/09/10 08:57:05;;;;;;;11.68;10.90;;;33.70;99.90;;;;;;5033974;28;20202;-55
2023/09/10 08:59:34;;;;;;;11.13;10.45;;;33.80;99.90;;;;;;5026421;28;20248;-56
2023/09/10 09:02:01;;;;;;;12.07;11.25;;;34.30;99.90;;;;;;5036097;28;20828;-56
2023/09/10 09:04:30;;;;;;;11.27;10.57;;;34.40;99.90;;;;;;5029326;28;20644;-56
2023/09/10 09:07:00;;;;;;;15.68;14.52;;;35.00;99.90;;;;;;5020839;28;20204;-55
2023/09/10 09:09:35;;;;;;;16.80;15.38;;;34.70;99.90;;;;;;5032595;28;20670;-56
2023/09/10 09:12:04;;;;;;;16.83;15.35;;;34.50;99.90;;;;;;5025344;28;20206;-55
2023/09/10 09:14:33;;;;;;;16.05;14.88;;;34.10;99.90;;;;;;5029970;28;20283;-56
2023/09/10 09:17:00;;;;;;;16.60;15.55;;;34.10;99.90;;;;;;5022423;28;20226;-56
2023/09/10 09:19:30;;;;;;;17.23;16.05;;;34.00;99.90;;;;;;5029002;28;21060;-55
2023/09/10 09:22:00;;;;;;;16.50;15.02;;;34.30;99.90;;;;;;5027605;28;20222;-55
2023/09/10 09:24:29;;;;;;;17.20;15.88;;;34.20;99.90;;;;;;5030443;28;20663;-55
2023/09/10 09:27:00;;;;;;;15.35;14.38;;;34.10;99.90;;;;;;5032311;28;20199;-56
2023/09/10 09:29:28;;;;;;;15.57;14.27;;;33.90;99.90;;;;;;5030455;28;20225;-55
2023/09/10 09:31:55;;;;;;;16.42;15.05;;;33.40;99.90;;;;;;5025134;28;20230;-55
2023/09/10 09:34:22;;;;;;;17.30;16.00;;;33.70;99.90;;;;;;5032370;28;20278;-55
2023/09/10 09:36:52;;;;;;;18.35;17.05;;;33.70;99.90;;;;;;5030035;28;20862;-55
2023/09/10 09:39:23;;;;;;;16.23;15.05;;;33.40;99.90;;;;;;5032583;28;20221;-55
2023/09/10 09:41:52;;;;;;;17.25;16.05;;;32.70;99.90;;;;;;5026983;28;20226;-55
2023/09/10 09:44:19;;;;;;;17.45;16.23;;;32.60;99.90;;;;;;5027685;28;20253;-56
2023/09/10 09:46:48;;;;;;;16.58;15.38;;;32.20;99.90;;;;;;5030420;28;20286;-56
2023/09/10 09:49:18;;;;;;;17.25;16.02;;;32.60;99.90;;;;;;5032438;28;20517;-56
2023/09/10 09:51:45;;;;;;;16.50;15.25;;;32.90;99.90;;;;;;5030561;28;20218;-55
2023/09/10 09:54:12;;;;;;;17.50;16.23;;;32.60;99.90;;;;;;5025990;28;20248;-53
2023/09/10 09:56:43;;;;;;;17.52;16.23;;;32.40;99.90;;;;;;5031202;28;20595;-53
2023/09/10 09:59:11;;;;;;;17.25;16.08;;;32.30;99.90;;;;;;5027954;28;20261;-53
2023/09/10 10:01:40;;;;;;;19.67;18.13;;;32.20;99.90;;;;;;5029947;28;20225;-53
2023/09/10 10:04:08;;;;;;;17.52;16.10;;;32.30;99.90;;;;;;5031849;28;20333;-53
2023/09/10 10:06:36;;;;;;;17.45;16.25;;;32.70;99.90;;;;;;5030976;28;20203;-53
2023/09/10 10:09:04;;;;;;;18.00;16.80;;;33.30;99.90;;;;;;5029530;28;20743;-53
2023/09/10 10:11:32;;;;;;;19.20;17.80;;;33.40;99.90;;;;;;5028212;28;20219;-53
2023/09/10 10:14:01;;;;;;;15.75;14.65;;;33.60;99.90;;;;;;5038203;28;20919;-56
2023/09/10 10:16:29;;;;;;;15.68;14.57;;;33.60;99.90;;;;;;5032037;28;20206;-55
2023/09/10 10:18:57;;;;;;;15.75;14.52;;;33.60;99.90;;;;;;5027142;28;20253;-55
2023/09/10 10:21:24;;;;;;;15.93;14.77;;;34.00;99.90;;;;;;5030887;28;20226;-56
2023/09/10 10:23:53;;;;;;;15.77;14.60;;;33.70;99.90;;;;;;5038188;28;20248;-56
2023/09/10 10:26:21;;;;;;;15.88;14.25;;;33.60;99.90;;;;;;5026001;28;20213;-56
2023/09/10 10:28:50;;;;;;;14.93;13.82;;;33.50;99.90;;;;;;5031736;28;20694;-56
2023/09/10 10:31:19;;;;;;;14.23;13.07;;;33.10;99.90;;;;;;5026287;28;20317;-56
2023/09/10 10:33:51;;;;;;;15.82;14.45;;;33.10;99.90;;;;;;5032322;28;20199;-55
2023/09/10 10:36:31;;;;;;;12.05;11.40;;;32.70;99.90;;;;;;5032216;28;20281;-55
2023/09/10 10:38:58;;;;;;;13.13;12.27;;;32.90;99.90;;;;;;5032658;28;20278;-56
2023/09/10 10:41:26;;;;;;;12.13;11.52;;;33.10;99.90;;;;;;5031306;28;20706;-56
2023/09/10 10:44:02;;;;;;;12.70;11.95;;;33.20;99.90;;;;;;5032342;28;20629;-56
2023/09/10 10:46:33;;;;;;;12.68;11.98;;;32.80;99.90;;;;;;5025874;28;20171;-55
2023/09/10 10:49:04;;;;;;;13.13;12.23;;;32.50;99.90;;;;;;5031870;28;20702;-63
2023/09/10 10:51:37;;;;;;;13.40;12.50;;;32.10;99.90;;;;;;5031987;28;20250;-60
2023/09/10 10:54:04;;;;;;;13.23;12.32;;;32.10;99.90;;;;;;5032028;28;20199;-59
2023/09/10 10:56:31;;;;;;;12.55;11.73;;;31.50;99.90;;;;;;5030515;28;20248;-59
2023/09/10 10:58:59;;;;;;;12.32;11.43;;;31.30;99.90;;;;;;5032009;28;20252;-59
2023/09/10 11:01:25;;;;;;;12.73;11.93;;;31.00;99.90;;;;;;5031494;28;20279;-59
2023/09/10 11:03:54;;;;;;;12.93;12.00;;;30.80;99.90;;;;;;5031925;28;20610;-56
2023/09/10 11:06:21;;;;;;;11.82;11.07;;;30.80;99.90;;;;;;5030457;28;20198;-57
2023/09/10 11:08:48;;;;;;;12.82;11.88;;;30.30;99.90;;;;;;5031637;28;20720;-56
2023/09/10 11:11:45;;;;;;;13.25;12.15;;;29.90;99.90;;;;;;5030257;28;20227;-57
2023/09/10 11:14:12;;;;;;;12.90;12.10;;;29.80;99.90;;;;;;5027291;28;20256;-55
2023/09/10 11:16:42;;;;;;;12.82;12.02;;;29.80;99.90;;;;;;5021672;28;20199;-57
2023/09/10 11:19:44;;;;;;;11.70;11.07;;;29.80;99.90;;;;;;5030721;28;20203;-58
2023/09/10 11:22:12;;;;;;;11.02;10.43;;;29.80;99.90;;;;;;5028412;28;20289;-63
2023/09/10 11:24:41;;;;;;;12.10;11.30;;;29.90;99.90;;;;;;5031242;28;20268;-64
2023/09/10 11:27:23;;;;;;;12.23;11.43;;;29.90;99.90;;;;;;5030317;28;20248;-62
2023/09/10 11:30:11;;;;;;;11.27;10.68;;;29.80;99.90;;;;;;5034811;28;20245;-62
2023/09/10 11:32:38;;;;;;;11.40;10.75;;;29.80;99.90;;;;;;5027828;28;20203;-62
2023/09/10 11:35:24;;;;;;;11.73;10.95;;;29.70;99.90;;;;;;5038912;28;20244;-62
2023/09/10 11:37:55;;;;;;;12.85;11.98;;;29.70;99.90;;;;;;5030446;28;20209;-63
2023/09/10 11:40:24;;;;;;;13.00;12.20;;;29.50;99.90;;;;;;5028853;28;20301;-61
2023/09/10 11:42:51;;;;;;;12.73;11.73;;;29.40;99.90;;;;;;5031106;28;20198;-61
2023/09/10 11:45:19;;;;;;;12.57;11.77;;;29.50;99.90;;;;;;5030576;28;20202;-62
2023/09/10 11:47:47;;;;;;;12.27;11.43;;;29.50;99.90;;;;;;5029557;28;20202;-59
2023/09/10 11:50:20;;;;;;;12.10;11.15;;;29.30;99.90;;;;;;5028078;28;20230;-57
2023/09/10 11:52:47;;;;;;;11.77;10.98;;;29.20;99.90;;;;;;5030952;28;20206;-58
2023/09/10 11:55:15;;;;;;;12.63;11.65;;;29.40;99.90;;;;;;5030491;28;20210;-57
2023/09/10 11:57:42;;;;;;;11.48;10.68;;;29.40;99.90;;;;;;5034253;28;20201;-59
2023/09/10 12:00:16;;;;;;;11.93;11.07;;;29.40;99.90;;;;;;5034332;28;20783;-60
2023/09/10 12:02:43;;;;;;;10.77;10.15;;;29.60;99.90;;;;;;5023936;28;20204;-59
2023/09/10 12:05:10;;;;;;;10.88;10.20;;;29.60;99.90;;;;;;5029423;28;20658;-60
2023/09/10 12:07:37;;;;;;;10.80;10.15;;;29.70;99.90;;;;;;5031069;28;20198;-59
2023/09/10 12:10:05;;;;;;;12.18;11.38;;;29.70;99.90;;;;;;5030664;28;20223;-59
2023/09/10 12:12:38;;;;;;;10.75;10.15;;;29.60;99.90;;;;;;5033624;28;20734;-58
2023/09/10 12:15:06;;;;;;;9.70;9.10;;;29.50;99.90;;;;;;5032988;28;20260;-59
2023/09/10 12:17:33;;;;;;;10.32;9.75;;;29.40;99.90;;;;;;5030452;28;20283;-58
2023/09/10 12:20:01;;;;;;;11.32;10.45;;;29.40;99.90;;;;;;5030569;28;20214;-58
2023/09/10 12:22:28;;;;;;;10.80;10.15;;;29.40;99.90;;;;;;5030826;28;20206;-57
2023/09/10 12:24:55;;;;;;;10.98;10.38;;;29.40;99.90;;;;;;5029386;28;20293;-52
2023/09/10 12:27:22;;;;;;;10.98;10.38;;;29.50;99.90;;;;;;5029835;28;20206;-53
2023/09/10 12:29:50;;;;;;;10.05;9.32;;;29.40;99.90;;;;;;5031979;28;20690;-53
2023/09/10 12:32:17;;;;;;;10.68;9.82;;;29.30;99.90;;;;;;5034629;28;20210;-53
2023/09/10 12:34:45;;;;;;;10.20;9.23;;;29.40;99.90;;;;;;5030385;28;20202;-54